Time;durP1;ratioP1;P1;durP2;ratioP2;P2;SDS_P1;SDS_P2;PMS_P1;PMS_P2;Temp;Humidity;BMP_temperature;BMP_pressure;BME280_temperature;BME280_humidity;BME280_pressure;Samples;Min_cycle;Max_cycle;Signal;HPM_P1;HPM_P2
2021/10/07 00:02:08;;;;;;;0.15;0.15;;;11.40;95.30;;;;;;5096033;28;20065;-74
2021/10/07 00:04:33;;;;;;;0.22;0.20;;;11.40;95.20;;;;;;5113794;28;20094;-75
2021/10/07 00:06:59;;;;;;;0.30;0.20;;;11.40;95.10;;;;;;5114261;28;20015;-73
2021/10/07 00:09:25;;;;;;;0.10;0.10;;;11.50;95.10;;;;;;5114087;28;20443;-75
2021/10/07 00:11:51;;;;;;;0.20;0.20;;;11.50;95.10;;;;;;5113996;28;20392;-74
2021/10/07 00:14:17;;;;;;;0.10;0.10;;;11.40;95.20;;;;;;5095910;28;20028;-74
2021/10/07 00:16:42;;;;;;;0.10;0.10;;;11.40;95.20;;;;;;5113996;28;20019;-74
2021/10/07 00:19:08;;;;;;;0.10;0.10;;;11.50;95.30;;;;;;5113539;28;20016;-74
2021/10/07 00:21:33;;;;;;;0.15;0.15;;;11.50;95.40;;;;;;5114113;28;20494;-74
2021/10/07 00:24:09;;;;;;;0.32;0.30;;;11.50;95.40;;;;;;5114038;28;20054;-75
2021/10/07 00:26:39;;;;;;;0.15;0.10;;;11.60;95.50;;;;;;5114150;28;20068;-75
2021/10/07 00:31:54;;;;;;;0.20;0.20;;;11.60;95.60;;;;;;5113967;28;20080;-75
2021/10/07 00:34:29;;;;;;;0.20;0.20;;;11.60;95.60;;;;;;5113729;28;20020;-75
2021/10/07 00:37:03;;;;;;;0.10;0.10;;;11.70;95.60;;;;;;5113959;28;20020;-75
2021/10/07 00:39:29;;;;;;;0.00;0.00;;;11.70;95.50;;;;;;5113883;28;20031;-74
2021/10/07 00:41:54;;;;;;;0.10;0.10;;;11.80;95.40;;;;;;5113884;28;20020;-74
2021/10/07 00:44:20;;;;;;;0.38;0.20;;;11.80;95.30;;;;;;5113867;28;20024;-74
2021/10/07 00:46:52;;;;;;;0.28;0.28;;;11.80;95.20;;;;;;5112213;28;20015;-74
2021/10/07 00:49:19;;;;;;;0.00;0.00;;;11.80;95.10;;;;;;5113693;28;20040;-74
2021/10/07 00:51:44;;;;;;;0.20;0.15;;;11.70;95.10;;;;;;5114060;28;20012;-73
2021/10/07 00:54:11;;;;;;;0.13;0.10;;;11.70;95.10;;;;;;5113591;28;20027;-74
2021/10/07 00:56:37;;;;;;;0.28;0.28;;;11.80;95.10;;;;;;5113678;28;20054;-74
2021/10/07 00:59:03;;;;;;;0.10;0.10;;;11.80;95.00;;;;;;5113643;28;20059;-75
2021/10/07 01:01:29;;;;;;;0.25;0.20;;;11.80;95.20;;;;;;5112958;28;20166;-75
2021/10/07 01:03:55;;;;;;;0.17;0.17;;;11.90;94.90;;;;;;5095300;28;20024;-74
2021/10/07 01:06:20;;;;;;;0.20;0.20;;;11.80;94.90;;;;;;5113612;28;20030;-74
2021/10/07 01:08:46;;;;;;;0.10;0.10;;;11.80;94.90;;;;;;5095240;28;20093;-74
2021/10/07 01:11:13;;;;;;;0.10;0.10;;;11.80;95.00;;;;;;5094934;28;20039;-73
2021/10/07 01:13:40;;;;;;;0.10;0.10;;;11.90;94.90;;;;;;5113449;28;20027;-74
2021/10/07 01:16:06;;;;;;;0.30;0.30;;;11.90;94.90;;;;;;5113330;28;20023;-74
2021/10/07 01:18:31;;;;;;;0.20;0.20;;;11.80;94.90;;;;;;5113505;28;20556;-74
2021/10/07 01:20:59;;;;;;;0.20;0.20;;;11.80;95.00;;;;;;5095246;28;20031;-75
2021/10/07 01:23:24;;;;;;;0.00;0.00;;;11.70;95.10;;;;;;5113198;28;20083;-74
2021/10/07 01:25:50;;;;;;;0.15;0.15;;;11.60;95.10;;;;;;5113389;28;20090;-75
2021/10/07 01:28:16;;;;;;;0.20;0.20;;;11.50;95.20;;;;;;5113354;28;20028;-73
2021/10/07 01:30:43;;;;;;;0.30;0.30;;;11.50;95.20;;;;;;5094496;28;20396;-74
2021/10/07 01:33:08;;;;;;;0.15;0.15;;;11.40;95.30;;;;;;5113385;28;20027;-74
2021/10/07 01:35:34;;;;;;;0.55;0.20;;;11.30;95.40;;;;;;5113436;28;20069;-74
2021/10/07 01:38:00;;;;;;;0.15;0.15;;;11.40;95.50;;;;;;5112999;28;20388;-74
2021/10/07 01:40:25;;;;;;;0.20;0.20;;;11.40;95.40;;;;;;5113285;28;20030;-75
2021/10/07 01:42:51;;;;;;;0.10;0.10;;;11.40;95.40;;;;;;5113224;28;20020;-74
2021/10/07 01:45:17;;;;;;;0.20;0.17;;;11.40;95.30;;;;;;5112533;28;20016;-74
2021/10/07 01:47:43;;;;;;;0.10;0.10;;;11.40;95.20;;;;;;5113161;28;20027;-75
2021/10/07 01:50:10;;;;;;;0.20;0.20;;;11.40;95.20;;;;;;5113138;28;20035;-75
2021/10/07 01:52:36;;;;;;;0.10;0.10;;;11.40;95.20;;;;;;5113159;28;20019;-74
2021/10/07 01:55:02;;;;;;;0.10;0.10;;;11.30;95.20;;;;;;5112949;28;20027;-74
2021/10/07 01:57:28;;;;;;;0.22;0.22;;;11.20;95.30;;;;;;5095971;28;20019;-75
2021/10/07 01:59:53;;;;;;;0.10;0.10;;;11.10;95.50;;;;;;5116377;28;20034;-74
2021/10/07 02:02:19;;;;;;;0.13;0.13;;;11.10;95.60;;;;;;5116754;28;20054;-75
2021/10/07 02:04:44;;;;;;;0.28;0.28;;;11.00;95.60;;;;;;5116653;28;20102;-75
2021/10/07 02:07:10;;;;;;;0.32;0.20;;;10.90;95.70;;;;;;5116605;28;20468;-74
2021/10/07 02:09:35;;;;;;;0.22;0.22;;;10.90;95.70;;;;;;5116415;28;20046;-74
2021/10/07 02:12:01;;;;;;;0.10;0.10;;;10.90;95.70;;;;;;5116442;28;20044;-74
2021/10/07 02:14:29;;;;;;;0.20;0.20;;;10.80;95.60;;;;;;5115966;28;20030;-75
2021/10/07 02:16:55;;;;;;;0.10;0.10;;;10.70;95.50;;;;;;5116406;28;20043;-73
2021/10/07 02:19:20;;;;;;;0.10;0.10;;;10.70;95.50;;;;;;5116256;28;20070;-74
2021/10/07 02:21:46;;;;;;;0.20;0.20;;;10.60;95.50;;;;;;5097957;28;20028;-74
2021/10/07 02:24:12;;;;;;;0.10;0.10;;;10.50;95.60;;;;;;5116208;28;20057;-73
2021/10/07 02:26:37;;;;;;;0.10;0.10;;;10.40;95.70;;;;;;5116278;28;20030;-73
2021/10/07 02:29:04;;;;;;;0.10;0.10;;;10.50;95.70;;;;;;5115519;28;20032;-75
2021/10/07 02:31:29;;;;;;;0.20;0.20;;;10.50;95.60;;;;;;5116081;28;20027;-74
2021/10/07 02:33:55;;;;;;;0.10;0.10;;;10.60;95.40;;;;;;5116030;28;20028;-73
2021/10/07 02:36:22;;;;;;;0.10;0.10;;;10.60;95.30;;;;;;5116004;28;20027;-75
2021/10/07 02:38:48;;;;;;;0.10;0.10;;;10.60;95.30;;;;;;5116001;28;20024;-73
2021/10/07 02:41:13;;;;;;;0.15;0.15;;;10.60;95.10;;;;;;5115922;28;20024;-74
2021/10/07 02:43:39;;;;;;;0.10;0.10;;;10.60;95.10;;;;;;5115440;28;20020;-75
2021/10/07 02:46:04;;;;;;;0.10;0.10;;;10.60;95.10;;;;;;5097616;28;20016;-75
2021/10/07 02:48:30;;;;;;;0.17;0.17;;;10.60;95.10;;;;;;5115743;28;20427;-75
2021/10/07 02:50:56;;;;;;;0.03;0.03;;;10.70;95.00;;;;;;5097335;28;20038;-75
2021/10/07 02:53:22;;;;;;;0.20;0.20;;;10.70;95.00;;;;;;5097434;28;20031;-73
2021/10/07 02:55:47;;;;;;;0.10;0.10;;;10.70;95.00;;;;;;5115691;28;20111;-75
2021/10/07 02:58:13;;;;;;;0.20;0.20;;;10.70;95.10;;;;;;5115015;28;20091;-74
2021/10/07 03:00:39;;;;;;;0.10;0.10;;;10.70;95.10;;;;;;5115632;28;20463;-74
2021/10/07 03:03:04;;;;;;;0.00;0.00;;;10.70;95.10;;;;;;5115619;28;20046;-74
2021/10/07 03:05:30;;;;;;;0.10;0.10;;;10.80;95.10;;;;;;5115570;28;20357;-75
2021/10/07 03:07:55;;;;;;;0.22;0.22;;;10.80;95.20;;;;;;5115336;28;20095;-74
2021/10/07 03:10:21;;;;;;;0.10;0.10;;;10.80;95.00;;;;;;5114329;28;20093;-73
2021/10/07 03:12:47;;;;;;;0.00;0.00;;;10.80;95.10;;;;;;5114677;28;20441;-73
2021/10/07 03:15:12;;;;;;;0.22;0.20;;;10.80;95.10;;;;;;5115357;28;20020;-74
2021/10/07 03:17:38;;;;;;;0.20;0.20;;;10.70;95.20;;;;;;5115269;28;20019;-75
2021/10/07 03:20:07;;;;;;;0.17;0.10;;;10.70;95.20;;;;;;5115167;28;20030;-74
2021/10/07 03:22:33;;;;;;;0.10;0.10;;;10.70;95.10;;;;;;5115181;28;20098;-75
2021/10/07 03:24:59;;;;;;;0.10;0.10;;;10.70;95.20;;;;;;5115182;28;20047;-75
2021/10/07 03:27:24;;;;;;;0.00;0.00;;;10.70;95.20;;;;;;5114414;28;20016;-74
2021/10/07 03:29:50;;;;;;;0.00;0.00;;;10.70;95.20;;;;;;5096613;28;20032;-75
2021/10/07 03:32:15;;;;;;;0.38;0.13;;;10.70;95.10;;;;;;5114967;28;20503;-74
2021/10/07 03:34:41;;;;;;;0.03;0.03;;;10.70;95.10;;;;;;5114794;28;20035;-74
2021/10/07 03:37:07;;;;;;;0.13;0.13;;;10.60;95.00;;;;;;5114955;28;20022;-74
2021/10/07 03:39:32;;;;;;;0.10;0.10;;;10.60;95.00;;;;;;5114717;28;20069;-73
2021/10/07 03:41:58;;;;;;;0.17;0.17;;;10.50;95.00;;;;;;5114531;28;20039;-74
2021/10/07 03:44:24;;;;;;;0.10;0.10;;;10.50;95.00;;;;;;5114633;28;20023;-74
2021/10/07 03:46:49;;;;;;;0.03;0.03;;;10.50;95.00;;;;;;5114642;28;20028;-74
2021/10/07 03:49:14;;;;;;;0.08;0.08;;;10.40;94.90;;;;;;5114444;28;20059;-74
2021/10/07 03:51:40;;;;;;;0.20;0.20;;;10.40;94.80;;;;;;5096299;28;20064;-74
2021/10/07 03:54:06;;;;;;;0.13;0.13;;;10.40;94.80;;;;;;5114588;28;20020;-75
2021/10/07 03:56:31;;;;;;;0.10;0.10;;;10.30;94.80;;;;;;5095784;28;20024;-74
2021/10/07 03:58:59;;;;;;;0.00;0.00;;;10.30;94.80;;;;;;5114520;28;20035;-74
2021/10/07 04:01:25;;;;;;;0.10;0.10;;;10.30;94.80;;;;;;5114293;28;20464;-74
2021/10/07 04:03:50;;;;;;;0.28;0.22;;;10.30;94.70;;;;;;5114244;28;20034;-74
2021/10/07 04:06:16;;;;;;;0.20;0.20;;;10.30;94.70;;;;;;5114332;28;20023;-74
2021/10/07 04:08:42;;;;;;;0.00;0.00;;;10.30;94.70;;;;;;5114249;28;20016;-74
2021/10/07 04:11:07;;;;;;;0.10;0.10;;;10.30;94.80;;;;;;5113580;28;20442;-74
2021/10/07 04:13:33;;;;;;;0.10;0.10;;;10.30;94.80;;;;;;5114108;28;20050;-74
2021/10/07 04:15:58;;;;;;;0.00;0.00;;;10.40;94.80;;;;;;5114281;28;20020;-74
2021/10/07 04:18:24;;;;;;;0.00;0.00;;;10.40;94.80;;;;;;5114024;28;20031;-73
2021/10/07 04:20:50;;;;;;;0.10;0.10;;;10.40;94.80;;;;;;5095810;28;20028;-74
2021/10/07 04:23:19;;;;;;;0.10;0.10;;;10.30;94.80;;;;;;5095769;28;20475;-74
2021/10/07 04:25:45;;;;;;;0.10;0.10;;;10.30;95.10;;;;;;5113581;28;20038;-74
2021/10/07 04:28:11;;;;;;;0.10;0.10;;;10.20;94.90;;;;;;5113772;28;20024;-73
2021/10/07 04:30:37;;;;;;;0.13;0.13;;;10.10;94.90;;;;;;5113823;28;20043;-74
2021/10/07 04:33:04;;;;;;;0.05;0.05;;;10.00;95.00;;;;;;5095614;28;20015;-74
2021/10/07 04:35:30;;;;;;;0.10;0.10;;;10.00;95.10;;;;;;5095494;28;20038;-74
2021/10/07 04:37:56;;;;;;;0.05;0.05;;;9.90;95.10;;;;;;5113809;28;20074;-75
2021/10/07 04:40:22;;;;;;;0.10;0.10;;;9.80;95.10;;;;;;5113398;28;20413;-74
2021/10/07 04:42:48;;;;;;;0.10;0.10;;;9.80;95.20;;;;;;5095451;28;20020;-74
2021/10/07 04:45:14;;;;;;;0.08;0.08;;;9.70;95.20;;;;;;5113786;28;20022;-73
2021/10/07 04:47:39;;;;;;;0.10;0.10;;;9.70;95.10;;;;;;5113681;28;20467;-77
2021/10/07 04:50:06;;;;;;;0.10;0.10;;;9.70;95.20;;;;;;5095464;28;20023;-69
2021/10/07 04:52:31;;;;;;;0.10;0.10;;;9.60;95.10;;;;;;5113643;28;20024;-75
2021/10/07 04:54:57;;;;;;;0.10;0.10;;;9.60;95.10;;;;;;5094950;28;20345;-73
2021/10/07 04:57:23;;;;;;;0.00;0.00;;;9.60;95.00;;;;;;5113736;28;20103;-72
2021/10/07 04:59:48;;;;;;;0.10;0.10;;;9.50;95.00;;;;;;5113838;28;20474;-73
2021/10/07 05:02:14;;;;;;;0.10;0.10;;;9.50;95.00;;;;;;5113528;28;20502;-72
2021/10/07 05:04:39;;;;;;;0.10;0.10;;;9.40;95.00;;;;;;5113507;28;20024;-73
2021/10/07 05:07:05;;;;;;;0.08;0.08;;;9.50;95.00;;;;;;5113742;28;20030;-73
2021/10/07 05:09:30;;;;;;;0.00;0.00;;;9.40;94.90;;;;;;5113604;28;20028;-73
2021/10/07 05:11:56;;;;;;;0.00;0.00;;;9.40;94.80;;;;;;5113353;28;20043;-73
2021/10/07 05:14:22;;;;;;;0.05;0.05;;;9.30;94.70;;;;;;5095197;28;20026;-72
2021/10/07 05:16:47;;;;;;;0.10;0.10;;;9.30;94.70;;;;;;5113937;28;20019;-73
2021/10/07 05:19:13;;;;;;;0.00;0.00;;;9.20;94.80;;;;;;5113202;28;20023;-73
2021/10/07 05:21:38;;;;;;;0.10;0.10;;;9.20;94.80;;;;;;5095155;28;20065;-72
2021/10/07 05:24:04;;;;;;;0.15;0.15;;;9.20;94.90;;;;;;5112893;28;20102;-73
2021/10/07 05:26:29;;;;;;;0.10;0.10;;;9.10;94.90;;;;;;5095126;28;20027;-72
2021/10/07 05:28:55;;;;;;;0.10;0.10;;;9.10;95.00;;;;;;5113206;28;20023;-72
2021/10/07 05:31:21;;;;;;;0.10;0.10;;;9.00;95.00;;;;;;5113249;28;20077;-71
2021/10/07 05:33:47;;;;;;;0.13;0.13;;;9.00;95.00;;;;;;5116754;28;20024;-72
2021/10/07 05:36:12;;;;;;;0.10;0.10;;;9.00;95.00;;;;;;5117250;28;20023;-70
2021/10/07 05:38:38;;;;;;;0.00;0.00;;;9.00;95.00;;;;;;5116602;28;20019;-73
2021/10/07 05:41:04;;;;;;;0.10;0.10;;;9.00;95.00;;;;;;5098628;28;20019;-73
2021/10/07 05:43:30;;;;;;;0.20;0.20;;;9.00;95.00;;;;;;5117052;28;20015;-73
2021/10/07 05:45:55;;;;;;;0.10;0.10;;;9.00;95.00;;;;;;5116921;28;20084;-72
2021/10/07 05:48:21;;;;;;;0.20;0.20;;;9.10;94.90;;;;;;5116870;28;20380;-72
2021/10/07 05:50:47;;;;;;;0.10;0.10;;;9.10;94.80;;;;;;5116373;28;20038;-72
2021/10/07 05:53:12;;;;;;;0.10;0.10;;;9.10;94.80;;;;;;5116867;28;20020;-73
2021/10/07 05:55:38;;;;;;;0.10;0.10;;;9.10;94.80;;;;;;5116906;28;20110;-73
2021/10/07 05:58:03;;;;;;;0.10;0.10;;;9.00;94.80;;;;;;5116974;28;20381;-74
2021/10/07 06:00:29;;;;;;;0.13;0.13;;;9.00;94.80;;;;;;5116730;28;20072;-73
2021/10/07 06:02:55;;;;;;;0.10;0.10;;;9.00;94.80;;;;;;5116591;28;20103;-73
2021/10/07 06:05:20;;;;;;;0.20;0.20;;;9.00;94.80;;;;;;5097820;28;20031;-72
2021/10/07 06:07:45;;;;;;;0.10;0.10;;;8.90;94.80;;;;;;5116561;28;20077;-72
2021/10/07 06:10:14;;;;;;;0.25;0.25;;;8.90;94.80;;;;;;5116687;28;20524;-73
2021/10/07 06:12:39;;;;;;;0.10;0.10;;;9.00;94.80;;;;;;5116158;28;20047;-74
2021/10/07 06:15:06;;;;;;;0.20;0.20;;;9.00;94.80;;;;;;5116476;28;20030;-72
2021/10/07 06:17:31;;;;;;;0.10;0.10;;;9.00;94.70;;;;;;5116502;28;20020;-72
2021/10/07 06:20:05;;;;;;;0.15;0.15;;;9.10;94.70;;;;;;5116059;28;20015;-73
2021/10/07 06:22:31;;;;;;;0.20;0.20;;;9.10;94.70;;;;;;5116537;28;20016;-74
2021/10/07 06:24:57;;;;;;;0.10;0.10;;;9.20;94.70;;;;;;5116163;28;20479;-73
2021/10/07 06:27:23;;;;;;;0.10;0.10;;;9.20;94.60;;;;;;5116048;28;20107;-74
2021/10/07 06:29:50;;;;;;;0.10;0.10;;;9.30;94.70;;;;;;5097815;28;20031;-75
2021/10/07 06:32:16;;;;;;;0.80;0.20;;;9.30;94.70;;;;;;5116121;28;20414;-74
2021/10/07 06:34:42;;;;;;;0.10;0.10;;;9.30;94.70;;;;;;5115625;28;20576;-74
2021/10/07 06:37:07;;;;;;;0.20;0.20;;;9.30;94.80;;;;;;5115964;28;20110;-76
2021/10/07 06:39:33;;;;;;;0.25;0.25;;;9.40;94.80;;;;;;5115958;28;20089;-76
2021/10/07 06:42:00;;;;;;;0.10;0.10;;;9.50;94.80;;;;;;5115821;28;20016;-77
2021/10/07 06:44:25;;;;;;;0.43;0.20;;;9.60;94.80;;;;;;5115879;28;20031;-76
2021/10/07 06:46:51;;;;;;;0.20;0.20;;;9.70;94.80;;;;;;5115769;28;20031;-75
2021/10/07 06:49:16;;;;;;;0.10;0.10;;;9.70;94.70;;;;;;5096978;28;20047;-76
2021/10/07 06:51:42;;;;;;;0.10;0.10;;;9.70;94.70;;;;;;5115670;28;20028;-77
2021/10/07 06:54:07;;;;;;;0.10;0.10;;;9.70;94.80;;;;;;5115754;28;20026;-75
2021/10/07 06:56:33;;;;;;;0.00;0.00;;;9.70;94.80;;;;;;5115742;28;20024;-74
2021/10/07 06:58:58;;;;;;;0.10;0.10;;;9.70;94.80;;;;;;5115620;28;20016;-78
2021/10/07 07:01:27;;;;;;;0.10;0.10;;;9.80;94.90;;;;;;5115654;28;20027;-75
2021/10/07 07:03:54;;;;;;;0.10;0.10;;;9.90;94.90;;;;;;5115092;28;20016;-76
2021/10/07 07:06:21;;;;;;;0.20;0.20;;;9.90;94.90;;;;;;5115400;28;20408;-75
2021/10/07 07:08:46;;;;;;;0.10;0.10;;;9.90;94.80;;;;;;5115125;28;20020;-74
2021/10/07 07:11:12;;;;;;;0.10;0.10;;;10.00;94.90;;;;;;5115239;28;20043;-76
2021/10/07 07:13:38;;;;;;;0.03;0.03;;;10.00;94.90;;;;;;5115282;28;20043;-76
2021/10/07 07:16:04;;;;;;;0.10;0.10;;;10.00;94.90;;;;;;5115240;28;20080;-75
2021/10/07 07:18:30;;;;;;;0.10;0.10;;;10.10;94.90;;;;;;5114697;28;20426;-74
2021/10/07 07:20:55;;;;;;;0.10;0.10;;;10.10;94.90;;;;;;5115173;28;20095;-76
2021/10/07 07:23:21;;;;;;;0.20;0.20;;;10.20;94.90;;;;;;5114972;28;20020;-76
2021/10/07 07:25:47;;;;;;;0.10;0.10;;;10.20;94.90;;;;;;5114973;28;20051;-76
2021/10/07 07:28:13;;;;;;;0.10;0.10;;;10.30;94.90;;;;;;5114877;28;20024;-76
2021/10/07 07:30:39;;;;;;;0.10;0.10;;;10.30;94.90;;;;;;5114767;28;20031;-75
2021/10/07 07:33:05;;;;;;;0.03;0.03;;;10.40;94.90;;;;;;5114492;28;20058;-76
2021/10/07 07:35:32;;;;;;;0.10;0.10;;;10.50;94.90;;;;;;5114793;28;20051;-76
2021/10/07 07:38:03;;;;;;;0.10;0.10;;;10.50;94.90;;;;;;5114912;28;20020;-75
2021/10/07 07:40:30;;;;;;;0.05;0.05;;;10.60;94.90;;;;;;5115245;28;20364;-77
2021/10/07 07:42:55;;;;;;;0.13;0.13;;;10.60;94.90;;;;;;5114783;28;20015;-75
2021/10/07 07:45:21;;;;;;;0.10;0.10;;;10.60;94.90;;;;;;5096507;28;20073;-77
2021/10/07 07:47:46;;;;;;;0.00;0.00;;;10.70;95.00;;;;;;5095891;28;20076;-77
2021/10/07 07:50:13;;;;;;;0.10;0.10;;;10.70;95.00;;;;;;5114519;28;20036;-76
2021/10/07 07:52:39;;;;;;;0.20;0.20;;;10.80;95.00;;;;;;5096315;28;20476;-75
2021/10/07 07:55:06;;;;;;;0.00;0.00;;;10.90;95.00;;;;;;5113989;28;20127;-76
2021/10/07 07:57:32;;;;;;;0.17;0.17;;;11.00;94.90;;;;;;5114507;28;20019;-76
2021/10/07 07:59:58;;;;;;;0.10;0.10;;;11.00;94.90;;;;;;5114532;28;20106;-78
2021/10/07 08:02:24;;;;;;;0.20;0.20;;;11.10;94.90;;;;;;5113857;28;20095;-76
2021/10/07 08:04:51;;;;;;;0.28;0.28;;;11.20;94.90;;;;;;5114321;28;20057;-75
2021/10/07 08:07:17;;;;;;;0.10;0.10;;;11.20;94.90;;;;;;5114350;28;20106;-76
2021/10/07 08:09:46;;;;;;;0.10;0.10;;;11.30;95.00;;;;;;5114256;28;20035;-75
2021/10/07 08:12:16;;;;;;;0.30;0.30;;;11.30;95.10;;;;;;5113792;28;20043;-76
2021/10/07 08:14:43;;;;;;;0.10;0.10;;;11.40;95.00;;;;;;5114221;28;20020;-76
2021/10/07 08:17:09;;;;;;;0.10;0.10;;;11.50;95.00;;;;;;5113698;28;20027;-77
2021/10/07 08:19:35;;;;;;;0.10;0.10;;;11.60;95.00;;;;;;5113949;28;20066;-75
2021/10/07 08:22:00;;;;;;;0.15;0.15;;;11.60;94.90;;;;;;5113878;28;20043;-78
2021/10/07 08:24:26;;;;;;;0.00;0.00;;;11.80;94.90;;;;;;5095796;28;20457;-79
2021/10/07 08:26:51;;;;;;;0.10;0.10;;;11.80;94.90;;;;;;5113915;28;20024;-79
2021/10/07 08:29:17;;;;;;;0.10;0.10;;;11.80;94.80;;;;;;5113822;28;20028;-79
2021/10/07 08:31:43;;;;;;;0.10;0.10;;;11.90;94.90;;;;;;5113556;28;20019;-78
2021/10/07 08:34:08;;;;;;;0.00;0.00;;;11.90;94.80;;;;;;5095373;28;20020;-79
2021/10/07 08:36:36;;;;;;;0.05;0.00;;;11.90;94.80;;;;;;5113771;28;20069;-76
2021/10/07 08:39:01;;;;;;;0.22;0.08;;;12.00;94.80;;;;;;5113869;28;20055;-76
2021/10/07 08:41:29;;;;;;;0.10;0.10;;;12.00;94.90;;;;;;5113884;28;20418;-76
2021/10/07 08:43:55;;;;;;;0.10;0.10;;;12.00;94.80;;;;;;5113681;28;20073;-75
2021/10/07 08:46:20;;;;;;;0.22;0.13;;;12.00;94.80;;;;;;5113292;28;20024;-75
2021/10/07 08:48:46;;;;;;;0.10;0.10;;;12.00;94.80;;;;;;5113625;28;20023;-76
2021/10/07 08:51:12;;;;;;;0.10;0.10;;;12.10;94.90;;;;;;5113628;28;20016;-75
2021/10/07 08:53:38;;;;;;;0.10;0.10;;;12.10;94.90;;;;;;5113553;28;20041;-75
2021/10/07 08:56:06;;;;;;;0.10;0.10;;;12.10;94.80;;;;;;5113603;28;20020;-75
2021/10/07 08:58:31;;;;;;;0.10;0.10;;;12.20;94.90;;;;;;5113586;28;20019;-76
2021/10/07 09:00:59;;;;;;;0.20;0.20;;;12.20;95.30;;;;;;5094675;28;20094;-75
2021/10/07 09:03:25;;;;;;;0.30;0.30;;;12.30;95.00;;;;;;5113628;28;20031;-75
2021/10/07 09:06:08;;;;;;;0.10;0.10;;;12.30;95.00;;;;;;5113490;28;20024;-74
2021/10/07 09:08:42;;;;;;;0.10;0.10;;;12.30;94.90;;;;;;5116864;28;20525;-75
2021/10/07 09:11:08;;;;;;;0.38;0.10;;;12.40;94.90;;;;;;5117552;28;20039;-76
2021/10/07 09:13:35;;;;;;;0.20;0.20;;;12.40;94.90;;;;;;5118003;28;20028;-76
2021/10/07 09:16:02;;;;;;;0.20;0.20;;;12.50;94.90;;;;;;5117164;28;20112;-76
2021/10/07 09:18:29;;;;;;;0.20;0.10;;;12.60;94.90;;;;;;5117352;28;20030;-75
2021/10/07 09:20:57;;;;;;;0.50;0.45;;;12.80;94.90;;;;;;5117584;28;20376;-75
2021/10/07 09:23:29;;;;;;;0.50;0.40;;;12.80;94.80;;;;;;5117409;28;20024;-76
2021/10/07 09:26:02;;;;;;;0.10;0.10;;;12.90;94.80;;;;;;5117287;28;20069;-76
2021/10/07 09:28:49;;;;;;;0.60;0.43;;;13.00;94.80;;;;;;5117044;28;20023;-74
2021/10/07 09:31:16;;;;;;;0.57;0.38;;;13.10;94.70;;;;;;5098958;28;20412;-75
2021/10/07 09:33:44;;;;;;;0.10;0.10;;;13.10;94.70;;;;;;5117250;28;20085;-76
2021/10/07 09:36:18;;;;;;;0.10;0.10;;;13.20;94.80;;;;;;5117313;28;20110;-75
2021/10/07 09:38:47;;;;;;;1.23;0.45;;;13.30;94.80;;;;;;5117069;28;20019;-74
2021/10/07 09:41:19;;;;;;;0.70;0.43;;;13.40;94.80;;;;;;5098885;28;20019;-74
2021/10/07 09:43:52;;;;;;;0.57;0.30;;;13.50;94.70;;;;;;5098273;28;20020;-74
2021/10/07 09:46:40;;;;;;;0.43;0.38;;;13.50;94.70;;;;;;5117113;28;20023;-75
2021/10/07 09:49:12;;;;;;;0.68;0.30;;;13.60;94.70;;;;;;5116978;28;20040;-74
2021/10/07 09:51:43;;;;;;;0.52;0.50;;;13.60;94.70;;;;;;5116851;28;20019;-75
2021/10/07 09:54:09;;;;;;;0.45;0.43;;;13.70;94.70;;;;;;5117000;28;20028;-73
2021/10/07 09:56:36;;;;;;;0.75;0.40;;;13.80;94.70;;;;;;5116611;28;20346;-74
2021/10/07 09:59:09;;;;;;;0.63;0.45;;;13.80;94.70;;;;;;5116311;28;20032;-75
2021/10/07 10:01:38;;;;;;;0.60;0.38;;;13.90;94.70;;;;;;5116734;28;20047;-76
2021/10/07 10:04:04;;;;;;;1.35;0.38;;;13.90;94.70;;;;;;5116482;28;20023;-74
2021/10/07 10:06:30;;;;;;;0.60;0.40;;;13.90;94.70;;;;;;5116662;28;20024;-75
2021/10/07 10:08:55;;;;;;;0.47;0.38;;;13.90;94.80;;;;;;5116523;28;20023;-75
2021/10/07 10:11:21;;;;;;;0.30;0.30;;;13.90;94.80;;;;;;5116145;28;20514;-75
2021/10/07 10:13:48;;;;;;;0.60;0.30;;;13.90;94.80;;;;;;5114975;28;20483;-73
2021/10/07 10:16:16;;;;;;;0.55;0.55;;;14.00;94.70;;;;;;5115162;28;20046;-73
2021/10/07 10:18:44;;;;;;;1.70;0.65;;;14.10;94.70;;;;;;5114822;28;20016;-74
2021/10/07 10:21:10;;;;;;;1.20;0.80;;;14.10;94.70;;;;;;5115142;28;20020;-74
2021/10/07 10:23:37;;;;;;;0.75;0.30;;;14.10;94.70;;;;;;5115308;28;20012;-75
2021/10/07 10:26:09;;;;;;;0.95;0.47;;;14.10;94.70;;;;;;5096812;28;20387;-76
2021/10/07 10:28:41;;;;;;;0.60;0.43;;;14.20;94.70;;;;;;5114569;28;20443;-76
2021/10/07 10:31:13;;;;;;;0.22;0.17;;;14.20;94.70;;;;;;5114979;28;20063;-76
2021/10/07 10:33:44;;;;;;;0.70;0.45;;;14.20;94.60;;;;;;5115088;28;20087;-76
2021/10/07 10:36:25;;;;;;;0.32;0.20;;;14.20;94.60;;;;;;5115117;28;20028;-75
2021/10/07 10:39:14;;;;;;;1.02;0.60;;;14.20;94.60;;;;;;5114895;28;20035;-76
2021/10/07 10:41:56;;;;;;;0.80;0.60;;;14.20;94.60;;;;;;5114359;28;20023;-75
2021/10/07 10:44:34;;;;;;;0.57;0.38;;;14.20;94.60;;;;;;5114886;28;20103;-74
2021/10/07 10:47:06;;;;;;;0.55;0.55;;;14.20;94.60;;;;;;5114867;28;20055;-74
2021/10/07 10:49:52;;;;;;;0.65;0.65;;;14.20;94.60;;;;;;5114601;28;20058;-76
2021/10/07 10:52:23;;;;;;;0.93;0.40;;;14.20;94.60;;;;;;5114748;28;20028;-74
2021/10/07 10:55:11;;;;;;;0.30;0.30;;;14.30;94.70;;;;;;5114544;28;20102;-75
2021/10/07 10:57:49;;;;;;;0.47;0.47;;;14.20;94.60;;;;;;5114394;28;20103;-74
2021/10/07 11:00:16;;;;;;;0.43;0.43;;;14.30;94.70;;;;;;5114739;28;20372;-74
2021/10/07 11:02:55;;;;;;;0.65;0.60;;;14.30;94.70;;;;;;5114435;28;20467;-74
2021/10/07 11:05:28;;;;;;;0.20;0.20;;;14.30;94.70;;;;;;5114522;28;20076;-75
2021/10/07 11:08:09;;;;;;;0.35;0.35;;;14.40;94.70;;;;;;5114475;28;20020;-74
2021/10/07 11:10:43;;;;;;;0.60;0.50;;;14.40;94.60;;;;;;5114036;28;20043;-74
2021/10/07 11:13:19;;;;;;;0.90;0.70;;;14.50;94.60;;;;;;5079127;28;1011843;-76
2021/10/07 11:15:53;;;;;;;0.80;0.80;;;14.50;94.60;;;;;;5115236;28;20023;-74
2021/10/07 11:18:20;;;;;;;1.77;0.75;;;14.50;94.50;;;;;;5115204;28;20052;-74
2021/10/07 11:20:54;;;;;;;0.70;0.63;;;14.50;94.50;;;;;;5115194;28;20030;-76
2021/10/07 11:23:19;;;;;;;0.90;0.70;;;14.40;94.50;;;;;;5115228;28;20468;-75
2021/10/07 11:25:49;;;;;;;0.93;0.63;;;14.30;94.50;;;;;;5114317;28;20027;-75
2021/10/07 11:28:19;;;;;;;1.55;1.00;;;14.30;94.60;;;;;;5096628;28;20034;-74
2021/10/07 11:30:46;;;;;;;0.77;0.60;;;14.30;94.70;;;;;;5114164;28;20545;-74
2021/10/07 11:33:12;;;;;;;1.48;0.82;;;14.30;94.70;;;;;;5115067;28;20020;-73
2021/10/07 11:35:38;;;;;;;1.48;0.88;;;14.30;94.60;;;;;;5114826;28;20487;-75
2021/10/07 11:38:12;;;;;;;0.93;0.70;;;14.30;94.60;;;;;;5114732;28;20031;-74
2021/10/07 11:40:52;;;;;;;0.73;0.50;;;14.40;94.60;;;;;;5114384;28;20020;-74
2021/10/07 11:43:19;;;;;;;;;;;14.40;94.60;;;;;;5115237;28;20074;-73
2021/10/07 11:45:49;;;;;;;1.17;0.57;;;14.40;94.60;;;;;;5114685;28;20263;-74
2021/10/07 11:48:15;;;;;;;0.82;0.55;;;14.40;94.70;;;;;;5114615;28;20020;-74
2021/10/07 11:50:52;;;;;;;1.40;0.88;;;14.50;94.70;;;;;;5096354;28;20039;-75
2021/10/07 11:53:35;;;;;;;1.15;0.55;;;14.50;94.60;;;;;;5095967;28;20031;-76
2021/10/07 11:56:08;;;;;;;0.57;0.57;;;14.50;94.60;;;;;;5114560;28;20108;-75
2021/10/07 11:58:34;;;;;;;0.93;0.65;;;14.50;94.60;;;;;;5114436;28;20139;-74
2021/10/07 12:00:59;;;;;;;1.25;1.02;;;14.50;94.60;;;;;;5114412;28;20613;-74
2021/10/07 12:03:31;;;;;;;1.70;0.85;;;14.60;94.60;;;;;;5114518;28;20492;-75
2021/10/07 12:05:59;;;;;;;0.40;0.40;;;14.70;94.70;;;;;;5114288;28;20459;-75
2021/10/07 12:08:30;;;;;;;1.02;0.50;;;14.70;94.60;;;;;;5113887;28;20023;-76
2021/10/07 12:10:58;;;;;;;1.10;0.70;;;14.80;94.60;;;;;;5114213;28;20032;-75
2021/10/07 12:13:32;;;;;;;1.13;0.82;;;14.80;94.50;;;;;;5114219;28;20042;-75
2021/10/07 12:16:01;;;;;;;1.48;0.80;;;14.90;94.60;;;;;;5096173;28;20027;-76
2021/10/07 12:18:28;;;;;;;1.23;0.82;;;14.90;94.70;;;;;;5114100;28;20027;-74
2021/10/07 12:20:56;;;;;;;1.90;0.85;;;15.00;94.60;;;;;;5114222;28;20092;-74
2021/10/07 12:23:22;;;;;;;1.33;0.68;;;15.00;94.50;;;;;;5113479;28;20046;-75
2021/10/07 12:25:54;;;;;;;1.95;1.20;;;15.10;94.50;;;;;;5113940;28;20411;-76
2021/10/07 12:28:19;;;;;;;1.10;0.73;;;15.10;94.50;;;;;;5113955;28;20015;-75
2021/10/07 12:30:52;;;;;;;1.30;0.68;;;15.00;94.60;;;;;;5113928;28;20061;-75
2021/10/07 12:33:18;;;;;;;1.02;0.65;;;15.10;94.60;;;;;;5113985;28;20030;-75
2021/10/07 12:36:03;;;;;;;0.75;0.57;;;15.20;94.60;;;;;;5113981;28;20095;-75
2021/10/07 12:38:29;;;;;;;0.85;0.85;;;15.30;94.50;;;;;;5113439;28;20020;-75
2021/10/07 12:40:59;;;;;;;1.58;0.68;;;15.40;94.50;;;;;;5113743;28;20027;-74
2021/10/07 12:43:28;;;;;;;2.05;0.88;;;15.40;94.50;;;;;;5113840;28;20531;-75
2021/10/07 12:46:05;;;;;;;1.05;0.88;;;15.40;94.50;;;;;;5113724;28;20437;-74
2021/10/07 12:48:48;;;;;;;0.63;0.60;;;15.50;94.50;;;;;;5113639;28;20024;-75
2021/10/07 12:51:18;;;;;;;1.25;0.90;;;15.50;94.40;;;;;;5113700;28;20115;-74
2021/10/07 12:53:45;;;;;;;1.52;0.80;;;15.50;94.40;;;;;;5095328;28;20023;-74